createdAt,value
2022-08-21T04:00:25.185Z,8.00
2022-08-21T04:05:25.134Z,16.00
2022-08-21T04:10:25.083Z,40.00
2022-08-21T04:15:32.060Z,88.00
2022-08-21T04:20:24.968Z,152.00
2022-08-21T04:25:24.913Z,252.00
2022-08-21T04:30:27.587Z,388.00
2022-08-21T04:35:24.806Z,572.00
2022-08-21T04:40:24.787Z,824.00
2022-08-21T04:45:24.699Z,1128.00
2022-08-21T04:50:24.646Z,1472.00
2022-08-21T04:55:24.589Z,1864.00
2022-08-21T05:00:24.534Z,2340.00
2022-08-21T05:05:24.478Z,2868.00
2022-08-21T05:10:24.426Z,3376.00
2022-08-21T05:15:24.501Z,3892.00
2022-08-21T05:20:24.318Z,4308.00
2022-08-21T05:25:24.267Z,4820.00
2022-08-21T05:30:24.206Z,5560.00
2022-08-21T05:35:24.149Z,6380.00
2022-08-21T05:40:24.224Z,13180.00
2022-08-21T05:45:41.392Z,28768.00
2022-08-21T05:50:24.990Z,28160.00
2022-08-21T05:55:23.936Z,34400.00
2022-08-21T06:00:23.879Z,34080.00
2022-08-21T06:05:33.422Z,33728.00
2022-08-21T06:10:24.779Z,35136.00
2022-08-21T06:15:23.896Z,34848.00
2022-08-21T06:20:23.658Z,35264.00
2022-08-21T06:25:23.605Z,35904.00
2022-08-21T06:30:23.558Z,36640.00
2022-08-21T06:35:23.500Z,37152.00
2022-08-21T06:40:23.504Z,36576.00
2022-08-21T06:45:23.395Z,35456.00
2022-08-21T06:50:23.342Z,30784.00
2022-08-21T06:55:25.361Z,26976.00
2022-08-21T07:00:23.238Z,14164.00
2022-08-21T07:05:23.179Z,16128.00
2022-08-21T07:10:23.126Z,30560.00
2022-08-21T07:15:23.076Z,17248.00
2022-08-21T07:20:23.026Z,12108.00
2022-08-21T07:25:22.969Z,11244.00
2022-08-21T07:30:23.043Z,10720.00
2022-08-21T07:35:22.856Z,10580.00
2022-08-21T07:40:22.927Z,10068.00
2022-08-21T07:45:22.760Z,9932.00
2022-08-21T07:50:22.708Z,9400.00
2022-08-21T07:55:22.689Z,9104.00
2022-08-21T08:00:22.594Z,9004.00
2022-08-21T08:05:22.538Z,8800.00
2022-08-21T08:10:22.496Z,8384.00
2022-08-21T08:15:22.429Z,8304.00
2022-08-21T08:20:22.374Z,8188.00
2022-08-21T08:25:22.334Z,7180.00
2022-08-21T08:30:22.258Z,6748.00
2022-08-21T08:35:24.174Z,7400.00
2022-08-21T08:40:22.204Z,7008.00
2022-08-21T08:45:22.095Z,7124.00
2022-08-21T08:50:22.050Z,6908.00
2022-08-21T08:55:26.614Z,6972.00
2022-08-21T09:00:21.946Z,7020.00
2022-08-21T09:05:21.885Z,7208.00
2022-08-21T09:10:21.841Z,6620.00
2022-08-21T09:15:21.978Z,7192.00
2022-08-21T09:20:21.721Z,7184.00
2022-08-21T09:25:21.684Z,6540.00
2022-08-21T09:30:21.615Z,7136.00
2022-08-21T09:35:21.570Z,6920.00
2022-08-21T09:40:21.567Z,7824.00
2022-08-21T09:45:21.464Z,7576.00
2022-08-21T09:50:21.411Z,5092.00
2022-08-21T09:55:21.357Z,6068.00
2022-08-21T10:00:21.303Z,4604.00
2022-08-21T10:05:21.250Z,7388.00
2022-08-21T10:10:21.198Z,6976.00
2022-08-21T10:15:28.198Z,7280.00
2022-08-21T10:20:21.090Z,7336.00
2022-08-21T10:25:21.031Z,7300.00
2022-08-21T10:30:20.980Z,7188.00
2022-08-21T10:35:20.939Z,7456.00
2022-08-21T10:40:20.928Z,7456.00
2022-08-21T10:45:20.815Z,6968.00
2022-08-21T10:50:20.762Z,5908.00
2022-08-21T10:55:20.712Z,6468.00
2022-08-21T11:00:20.656Z,6040.00
2022-08-21T11:05:20.602Z,5916.00
2022-08-21T11:10:20.547Z,6504.00
2022-08-21T11:15:29.385Z,6684.00
2022-08-21T11:20:21.450Z,6652.00
2022-08-21T11:25:20.389Z,7980.00
2022-08-21T11:30:20.335Z,8908.00
2022-08-21T11:35:20.280Z,8976.00
2022-08-21T11:40:20.282Z,8504.00
2022-08-21T11:45:20.173Z,8644.00
2022-08-21T11:50:34.414Z,8536.00
2022-08-21T11:55:23.652Z,8560.00
2022-08-21T12:00:20.021Z,8116.00
2022-08-21T12:05:19.960Z,7376.00
2022-08-21T12:10:19.908Z,6940.00
2022-08-21T12:15:19.853Z,7060.00
2022-08-21T12:20:19.800Z,7384.00
2022-08-21T12:25:21.781Z,7248.00
2022-08-21T12:30:19.693Z,7280.00
2022-08-21T12:35:25.327Z,7364.00
2022-08-21T12:40:20.612Z,7312.00
2022-08-21T12:45:19.555Z,7008.00
2022-08-21T12:50:19.475Z,7316.00
2022-08-21T12:55:19.429Z,7328.00
2022-08-21T13:00:19.376Z,6988.00
2022-08-21T13:05:19.321Z,6616.00
2022-08-21T13:10:19.271Z,6320.00
2022-08-21T13:15:19.210Z,5640.00
2022-08-21T13:20:19.159Z,6788.00
2022-08-21T13:25:19.104Z,5464.00
2022-08-21T13:30:19.051Z,6816.00
2022-08-21T13:35:19.001Z,7660.00
2022-08-21T13:40:19.032Z,7568.00
2022-08-21T13:45:18.893Z,7548.00
2022-08-21T13:50:18.836Z,6532.00
2022-08-21T13:55:18.785Z,4976.00
2022-08-21T14:00:18.726Z,6268.00
2022-08-21T14:05:18.677Z,6960.00
2022-08-21T14:10:18.625Z,7264.00
2022-08-21T14:15:18.572Z,7080.00
2022-08-21T14:20:18.517Z,6944.00
2022-08-21T14:25:18.464Z,7376.00
2022-08-21T14:30:18.410Z,7412.00
2022-08-21T14:35:18.359Z,7280.00
2022-08-21T14:40:18.380Z,7028.00
2022-08-21T14:45:18.252Z,7340.00
2022-08-21T14:50:19.195Z,7468.00
2022-08-21T14:55:18.141Z,7480.00
2022-08-21T15:00:18.088Z,7404.00
2022-08-21T15:05:18.541Z,7316.00
2022-08-21T15:10:18.981Z,7200.00
2022-08-21T15:15:17.923Z,6968.00
2022-08-21T15:20:17.869Z,6820.00
2022-08-21T15:25:17.819Z,6604.00
2022-08-21T15:30:17.766Z,6008.00
2022-08-21T15:35:17.719Z,5676.00
2022-08-21T15:40:17.706Z,6048.00
2022-08-21T15:45:17.607Z,6008.00
2022-08-21T15:50:17.551Z,5544.00
2022-08-21T15:55:17.501Z,5388.00
2022-08-21T16:00:17.445Z,4804.00
2022-08-21T16:05:17.397Z,3948.00
2022-08-21T16:10:17.330Z,4140.00
2022-08-21T16:15:24.321Z,4588.00
2022-08-21T16:20:17.234Z,4316.00
2022-08-21T16:25:17.562Z,4080.00
2022-08-21T16:30:17.120Z,3504.00
2022-08-21T16:35:17.075Z,3244.00
2022-08-21T16:40:17.113Z,3040.00
2022-08-21T16:45:16.974Z,2892.00
2022-08-21T16:50:16.913Z,2816.00
2022-08-21T16:55:16.862Z,2596.00
2022-08-21T17:00:16.810Z,2692.00
2022-08-21T17:05:16.734Z,2728.00
2022-08-21T17:10:16.831Z,2968.00
2022-08-21T17:15:16.753Z,3076.00
2022-08-21T17:20:16.589Z,2960.00
2022-08-21T17:25:16.562Z,2880.00
2022-08-21T17:30:16.471Z,2724.00
2022-08-21T17:35:16.414Z,2512.00
2022-08-21T17:40:16.544Z,2284.00
2022-08-21T17:45:16.317Z,2044.00
2022-08-21T17:50:16.799Z,1808.00
2022-08-21T17:55:16.185Z,1556.00
2022-08-21T18:00:16.141Z,1308.00
2022-08-21T18:05:16.092Z,1056.00
2022-08-21T18:10:16.039Z,812.00
2022-08-21T18:15:16.002Z,608.00
2022-08-21T18:20:15.914Z,452.00
2022-08-21T18:25:15.879Z,324.00
2022-08-21T18:30:15.827Z,236.00
2022-08-21T18:35:15.756Z,168.00
2022-08-21T18:40:15.839Z,112.00
2022-08-21T18:45:15.664Z,76.00
2022-08-21T18:50:15.591Z,40.00
2022-08-21T18:55:15.555Z,24.00
2022-08-21T19:00:15.500Z,12.00
2022-08-21T19:05:15.428Z,4.00
2022-08-21T19:10:29.240Z,4.00
2022-08-21T19:15:16.360Z,0.00
2022-08-21T19:20:16.769Z,0.00
2022-08-21T19:25:16.222Z,0.00
2022-08-21T19:30:15.175Z,0.00
2022-08-21T19:35:15.117Z,0.00
2022-08-21T19:40:15.084Z,0.00
2022-08-21T19:45:15.009Z,0.00
2022-08-21T19:50:17.824Z,0.00
2022-08-21T19:55:15.900Z,0.00
2022-08-21T20:00:17.097Z,0.00
2022-08-21T20:05:14.788Z,0.00
2022-08-21T20:10:14.791Z,0.00
2022-08-21T20:15:14.702Z,0.00
2022-08-21T20:20:14.627Z,0.00
2022-08-21T20:25:14.571Z,0.00
2022-08-21T20:30:14.507Z,0.00
2022-08-21T20:35:14.464Z,0.00
2022-08-21T20:40:14.526Z,0.00
2022-08-21T20:45:14.348Z,0.00
2022-08-21T20:50:14.339Z,0.00
2022-08-21T20:55:14.246Z,0.00
2022-08-21T21:00:14.792Z,0.00
2022-08-21T21:05:14.145Z,0.00
2022-08-21T21:10:14.070Z,0.00
2022-08-21T21:15:14.041Z,0.00
2022-08-21T21:20:13.977Z,0.00
2022-08-21T21:25:13.922Z,0.00
2022-08-21T21:30:14.396Z,0.00
2022-08-21T21:35:13.813Z,0.00
2022-08-21T21:40:13.806Z,0.00
2022-08-21T21:45:13.809Z,0.00
2022-08-21T21:50:14.433Z,0.00
2022-08-21T21:55:14.594Z,0.00
2022-08-21T22:00:13.546Z,0.00
2022-08-21T22:05:13.483Z,0.00
2022-08-21T22:15:26.540Z,0.00
2022-08-21T22:20:13.323Z,0.00
2022-08-21T22:25:13.264Z,0.00
2022-08-21T22:30:13.219Z,0.00
2022-08-21T22:35:13.157Z,0.00
2022-08-21T22:40:13.183Z,0.00
2022-08-21T22:45:14.471Z,0.00
2022-08-21T22:50:12.996Z,0.00
2022-08-21T22:55:12.932Z,0.00
2022-08-21T23:00:12.884Z,0.00
2022-08-21T23:05:12.830Z,0.00
2022-08-21T23:10:12.790Z,0.00
2022-08-21T23:15:12.720Z,0.00
2022-08-21T23:20:13.661Z,0.00
2022-08-21T23:25:12.620Z,0.00
